sensor_id;sensor_type;location;lat;lon;timestamp;P1;durP1;ratioP1;P2;durP2;ratioP2
15679;SDS011;15488;48.114;11.532;2023-12-20T00:00:43;2.97;;;2.00;;
15679;SDS011;15488;48.114;11.532;2023-12-20T00:03:11;2.40;;;1.80;;
15679;SDS011;15488;48.114;11.532;2023-12-20T00:05:38;3.23;;;1.77;;
15679;SDS011;15488;48.114;11.532;2023-12-20T00:08:06;2.50;;;1.63;;
15679;SDS011;15488;48.114;11.532;2023-12-20T00:10:34;2.20;;;1.60;;
15679;SDS011;15488;48.114;11.532;2023-12-20T00:13:03;2.90;;;2.10;;
15679;SDS011;15488;48.114;11.532;2023-12-20T00:15:32;2.37;;;1.50;;
15679;SDS011;15488;48.114;11.532;2023-12-20T00:17:59;1.90;;;1.40;;
15679;SDS011;15488;48.114;11.532;2023-12-20T00:20:27;1.87;;;1.53;;
15679;SDS011;15488;48.114;11.532;2023-12-20T00:22:55;2.23;;;1.70;;
15679;SDS011;15488;48.114;11.532;2023-12-20T00:25:24;2.47;;;1.80;;
15679;SDS011;15488;48.114;11.532;2023-12-20T00:27:51;2.27;;;1.77;;
15679;SDS011;15488;48.114;11.532;2023-12-20T00:30:20;2.63;;;1.70;;
15679;SDS011;15488;48.114;11.532;2023-12-20T00:32:48;4.27;;;1.60;;
15679;SDS011;15488;48.114;11.532;2023-12-20T00:35:18;1.50;;;1.20;;
15679;SDS011;15488;48.114;11.532;2023-12-20T00:37:46;1.93;;;1.23;;
15679;SDS011;15488;48.114;11.532;2023-12-20T00:40:13;1.63;;;1.20;;
15679;SDS011;15488;48.114;11.532;2023-12-20T00:42:41;1.27;;;1.17;;
15679;SDS011;15488;48.114;11.532;2023-12-20T00:45:09;2.27;;;1.20;;
15679;SDS011;15488;48.114;11.532;2023-12-20T00:47:38;1.50;;;1.10;;
15679;SDS011;15488;48.114;11.532;2023-12-20T00:50:06;2.17;;;1.30;;
15679;SDS011;15488;48.114;11.532;2023-12-20T00:52:34;1.93;;;1.07;;
15679;SDS011;15488;48.114;11.532;2023-12-20T00:55:01;1.43;;;1.10;;
15679;SDS011;15488;48.114;11.532;2023-12-20T00:57:30;1.10;;;1.00;;
15679;SDS011;15488;48.114;11.532;2023-12-20T00:59:57;1.73;;;1.20;;
15679;SDS011;15488;48.114;11.532;2023-12-20T01:02:25;1.90;;;1.40;;
15679;SDS011;15488;48.114;11.532;2023-12-20T01:04:54;1.73;;;1.50;;
15679;SDS011;15488;48.114;11.532;2023-12-20T01:07:21;1.97;;;1.30;;
15679;SDS011;15488;48.114;11.532;2023-12-20T01:09:49;2.33;;;1.30;;
15679;SDS011;15488;48.114;11.532;2023-12-20T01:12:16;1.80;;;1.37;;
15679;SDS011;15488;48.114;11.532;2023-12-20T01:14:45;1.60;;;1.30;;
15679;SDS011;15488;48.114;11.532;2023-12-20T01:17:13;1.50;;;1.10;;
15679;SDS011;15488;48.114;11.532;2023-12-20T01:19:40;1.87;;;1.20;;
15679;SDS011;15488;48.114;11.532;2023-12-20T01:22:09;2.03;;;1.30;;
15679;SDS011;15488;48.114;11.532;2023-12-20T01:24:37;1.77;;;1.40;;
15679;SDS011;15488;48.114;11.532;2023-12-20T01:27:04;1.60;;;0.97;;
15679;SDS011;15488;48.114;11.532;2023-12-20T01:29:32;1.40;;;0.90;;
15679;SDS011;15488;48.114;11.532;2023-12-20T01:31:59;2.13;;;1.03;;
15679;SDS011;15488;48.114;11.532;2023-12-20T01:34:27;1.57;;;0.83;;
15679;SDS011;15488;48.114;11.532;2023-12-20T01:36:54;1.40;;;1.00;;
15679;SDS011;15488;48.114;11.532;2023-12-20T01:39:24;1.60;;;1.23;;
15679;SDS011;15488;48.114;11.532;2023-12-20T01:41:51;1.53;;;1.10;;
15679;SDS011;15488;48.114;11.532;2023-12-20T01:44:19;1.63;;;1.10;;
15679;SDS011;15488;48.114;11.532;2023-12-20T01:46:46;1.10;;;0.80;;
15679;SDS011;15488;48.114;11.532;2023-12-20T01:49:14;1.20;;;0.80;;
15679;SDS011;15488;48.114;11.532;2023-12-20T01:51:42;1.50;;;0.90;;
15679;SDS011;15488;48.114;11.532;2023-12-20T01:54:10;1.33;;;1.10;;
15679;SDS011;15488;48.114;11.532;2023-12-20T01:56:40;0.87;;;0.60;;
15679;SDS011;15488;48.114;11.532;2023-12-20T01:59:08;1.10;;;0.70;;
15679;SDS011;15488;48.114;11.532;2023-12-20T02:01:36;1.60;;;0.80;;
15679;SDS011;15488;48.114;11.532;2023-12-20T02:04:04;0.70;;;0.67;;
15679;SDS011;15488;48.114;11.532;2023-12-20T02:06:31;1.00;;;0.73;;
15679;SDS011;15488;48.114;11.532;2023-12-20T02:09:01;1.37;;;0.80;;
15679;SDS011;15488;48.114;11.532;2023-12-20T02:11:28;0.83;;;0.77;;
15679;SDS011;15488;48.114;11.532;2023-12-20T02:13:57;1.17;;;0.90;;
15679;SDS011;15488;48.114;11.532;2023-12-20T02:16:25;0.93;;;0.60;;
15679;SDS011;15488;48.114;11.532;2023-12-20T02:18:53;0.83;;;0.70;;
15679;SDS011;15488;48.114;11.532;2023-12-20T02:21:25;0.90;;;0.60;;
15679;SDS011;15488;48.114;11.532;2023-12-20T02:23:58;0.67;;;0.60;;
15679;SDS011;15488;48.114;11.532;2023-12-20T02:26:25;0.80;;;0.50;;
15679;SDS011;15488;48.114;11.532;2023-12-20T02:28:53;1.50;;;0.70;;
15679;SDS011;15488;48.114;11.532;2023-12-20T02:31:22;0.60;;;0.60;;
15679;SDS011;15488;48.114;11.532;2023-12-20T02:33:49;0.50;;;0.40;;
15679;SDS011;15488;48.114;11.532;2023-12-20T02:36:17;0.70;;;0.40;;
15679;SDS011;15488;48.114;11.532;2023-12-20T02:38:46;0.50;;;0.23;;
15679;SDS011;15488;48.114;11.532;2023-12-20T02:41:15;0.50;;;0.40;;
15679;SDS011;15488;48.114;11.532;2023-12-20T02:43:43;0.60;;;0.50;;
15679;SDS011;15488;48.114;11.532;2023-12-20T02:46:10;0.73;;;0.60;;
15679;SDS011;15488;48.114;11.532;2023-12-20T02:48:40;1.17;;;0.53;;
15679;SDS011;15488;48.114;11.532;2023-12-20T02:51:07;0.50;;;0.40;;
15679;SDS011;15488;48.114;11.532;2023-12-20T02:53:35;0.57;;;0.40;;
15679;SDS011;15488;48.114;11.532;2023-12-20T02:56:04;0.63;;;0.40;;
15679;SDS011;15488;48.114;11.532;2023-12-20T02:58:32;0.37;;;0.37;;
15679;SDS011;15488;48.114;11.532;2023-12-20T03:00:59;0.90;;;0.40;;
15679;SDS011;15488;48.114;11.532;2023-12-20T03:03:27;0.73;;;0.37;;
15679;SDS011;15488;48.114;11.532;2023-12-20T03:05:55;0.73;;;0.50;;
15679;SDS011;15488;48.114;11.532;2023-12-20T03:08:22;0.83;;;0.57;;
15679;SDS011;15488;48.114;11.532;2023-12-20T03:10:50;1.60;;;0.50;;
15679;SDS011;15488;48.114;11.532;2023-12-20T03:13:19;0.30;;;0.20;;
15679;SDS011;15488;48.114;11.532;2023-12-20T03:15:47;0.63;;;0.40;;
15679;SDS011;15488;48.114;11.532;2023-12-20T03:18:14;0.87;;;0.70;;
15679;SDS011;15488;48.114;11.532;2023-12-20T03:20:43;0.50;;;0.40;;
15679;SDS011;15488;48.114;11.532;2023-12-20T03:23:12;0.60;;;0.43;;
15679;SDS011;15488;48.114;11.532;2023-12-20T03:25:40;0.70;;;0.47;;
15679;SDS011;15488;48.114;11.532;2023-12-20T03:28:07;0.53;;;0.40;;
15679;SDS011;15488;48.114;11.532;2023-12-20T03:30:36;0.57;;;0.50;;
15679;SDS011;15488;48.114;11.532;2023-12-20T03:33:04;0.43;;;0.40;;
15679;SDS011;15488;48.114;11.532;2023-12-20T03:35:32;0.33;;;0.30;;
15679;SDS011;15488;48.114;11.532;2023-12-20T03:38:00;0.93;;;0.30;;
15679;SDS011;15488;48.114;11.532;2023-12-20T03:40:27;0.73;;;0.30;;
15679;SDS011;15488;48.114;11.532;2023-12-20T03:42:55;0.40;;;0.40;;
15679;SDS011;15488;48.114;11.532;2023-12-20T03:45:23;1.87;;;0.47;;
15679;SDS011;15488;48.114;11.532;2023-12-20T03:47:51;0.30;;;0.30;;
15679;SDS011;15488;48.114;11.532;2023-12-20T03:50:20;0.40;;;0.30;;
15679;SDS011;15488;48.114;11.532;2023-12-20T03:52:48;0.53;;;0.30;;
15679;SDS011;15488;48.114;11.532;2023-12-20T03:55:15;0.60;;;0.40;;
15679;SDS011;15488;48.114;11.532;2023-12-20T03:57:43;0.40;;;0.30;;
15679;SDS011;15488;48.114;11.532;2023-12-20T04:00:12;0.47;;;0.40;;
15679;SDS011;15488;48.114;11.532;2023-12-20T04:02:40;1.37;;;0.50;;
15679;SDS011;15488;48.114;11.532;2023-12-20T04:05:10;1.27;;;0.30;;
15679;SDS011;15488;48.114;11.532;2023-12-20T04:07:37;0.60;;;0.33;;
15679;SDS011;15488;48.114;11.532;2023-12-20T04:10:05;0.50;;;0.40;;
15679;SDS011;15488;48.114;11.532;2023-12-20T04:12:33;0.30;;;0.30;;
15679;SDS011;15488;48.114;11.532;2023-12-20T04:15:01;0.57;;;0.30;;
15679;SDS011;15488;48.114;11.532;2023-12-20T04:17:34;1.10;;;0.30;;
15679;SDS011;15488;48.114;11.532;2023-12-20T04:20:02;0.80;;;0.40;;
15679;SDS011;15488;48.114;11.532;2023-12-20T04:22:31;0.73;;;0.47;;
15679;SDS011;15488;48.114;11.532;2023-12-20T04:24:59;0.63;;;0.33;;
15679;SDS011;15488;48.114;11.532;2023-12-20T04:27:27;0.40;;;0.33;;
15679;SDS011;15488;48.114;11.532;2023-12-20T04:29:54;0.87;;;0.50;;
15679;SDS011;15488;48.114;11.532;2023-12-20T04:32:22;0.50;;;0.40;;
15679;SDS011;15488;48.114;11.532;2023-12-20T04:34:50;0.70;;;0.40;;
15679;SDS011;15488;48.114;11.532;2023-12-20T04:37:17;0.70;;;0.50;;
15679;SDS011;15488;48.114;11.532;2023-12-20T04:39:46;0.67;;;0.40;;
15679;SDS011;15488;48.114;11.532;2023-12-20T04:42:14;0.60;;;0.50;;
15679;SDS011;15488;48.114;11.532;2023-12-20T04:44:41;0.70;;;0.40;;
15679;SDS011;15488;48.114;11.532;2023-12-20T04:47:09;1.17;;;0.40;;
15679;SDS011;15488;48.114;11.532;2023-12-20T04:49:37;0.87;;;0.50;;
15679;SDS011;15488;48.114;11.532;2023-12-20T04:52:05;0.67;;;0.60;;
15679;SDS011;15488;48.114;11.532;2023-12-20T04:54:32;0.80;;;0.60;;
15679;SDS011;15488;48.114;11.532;2023-12-20T04:57:01;1.67;;;0.80;;
15679;SDS011;15488;48.114;11.532;2023-12-20T04:59:29;1.10;;;0.97;;
15679;SDS011;15488;48.114;11.532;2023-12-20T05:01:57;0.97;;;0.80;;
15679;SDS011;15488;48.114;11.532;2023-12-20T05:04:24;1.00;;;0.80;;
15679;SDS011;15488;48.114;11.532;2023-12-20T05:06:52;0.80;;;0.80;;
15679;SDS011;15488;48.114;11.532;2023-12-20T05:09:19;1.47;;;1.00;;
15679;SDS011;15488;48.114;11.532;2023-12-20T05:11:47;1.20;;;0.90;;
15679;SDS011;15488;48.114;11.532;2023-12-20T05:14:15;0.90;;;0.77;;
15679;SDS011;15488;48.114;11.532;2023-12-20T05:16:43;1.10;;;0.80;;
15679;SDS011;15488;48.114;11.532;2023-12-20T05:19:11;1.17;;;0.67;;
15679;SDS011;15488;48.114;11.532;2023-12-20T05:21:39;0.80;;;0.80;;
15679;SDS011;15488;48.114;11.532;2023-12-20T05:24:07;1.13;;;0.70;;
15679;SDS011;15488;48.114;11.532;2023-12-20T05:26:34;1.23;;;1.00;;
15679;SDS011;15488;48.114;11.532;2023-12-20T05:29:02;1.20;;;0.90;;
15679;SDS011;15488;48.114;11.532;2023-12-20T05:31:31;1.40;;;0.90;;
15679;SDS011;15488;48.114;11.532;2023-12-20T05:33:58;1.00;;;0.90;;
15679;SDS011;15488;48.114;11.532;2023-12-20T05:36:26;1.60;;;0.80;;
15679;SDS011;15488;48.114;11.532;2023-12-20T05:38:53;2.23;;;1.40;;
15679;SDS011;15488;48.114;11.532;2023-12-20T05:41:21;2.73;;;1.10;;
15679;SDS011;15488;48.114;11.532;2023-12-20T05:43:48;2.00;;;1.30;;
15679;SDS011;15488;48.114;11.532;2023-12-20T05:46:16;2.10;;;1.30;;
15679;SDS011;15488;48.114;11.532;2023-12-20T05:48:45;1.33;;;0.80;;
15679;SDS011;15488;48.114;11.532;2023-12-20T05:51:12;1.57;;;1.00;;
15679;SDS011;15488;48.114;11.532;2023-12-20T05:53:40;2.27;;;0.90;;
15679;SDS011;15488;48.114;11.532;2023-12-20T05:56:07;0.73;;;0.60;;
15679;SDS011;15488;48.114;11.532;2023-12-20T05:58:35;1.00;;;0.73;;
15679;SDS011;15488;48.114;11.532;2023-12-20T06:01:03;0.77;;;0.77;;
15679;SDS011;15488;48.114;11.532;2023-12-20T06:03:32;0.83;;;0.73;;
15679;SDS011;15488;48.114;11.532;2023-12-20T06:06:05;0.90;;;0.70;;
15679;SDS011;15488;48.114;11.532;2023-12-20T06:08:33;1.90;;;0.77;;
15679;SDS011;15488;48.114;11.532;2023-12-20T06:11:00;1.00;;;0.80;;
15679;SDS011;15488;48.114;11.532;2023-12-20T06:13:28;0.80;;;0.67;;
15679;SDS011;15488;48.114;11.532;2023-12-20T06:15:56;1.27;;;0.87;;
15679;SDS011;15488;48.114;11.532;2023-12-20T06:18:23;0.80;;;0.80;;
15679;SDS011;15488;48.114;11.532;2023-12-20T06:20:51;0.60;;;0.60;;
15679;SDS011;15488;48.114;11.532;2023-12-20T06:23:20;0.80;;;0.80;;
15679;SDS011;15488;48.114;11.532;2023-12-20T06:25:47;1.63;;;0.80;;
15679;SDS011;15488;48.114;11.532;2023-12-20T06:28:15;0.90;;;0.70;;
15679;SDS011;15488;48.114;11.532;2023-12-20T06:30:42;1.10;;;1.00;;
15679;SDS011;15488;48.114;11.532;2023-12-20T06:33:12;1.17;;;1.00;;
15679;SDS011;15488;48.114;11.532;2023-12-20T06:35:39;1.83;;;1.10;;
15679;SDS011;15488;48.114;11.532;2023-12-20T06:38:07;0.70;;;0.50;;
15679;SDS011;15488;48.114;11.532;2023-12-20T06:40:36;1.20;;;0.77;;
15679;SDS011;15488;48.114;11.532;2023-12-20T06:43:04;1.13;;;0.90;;
15679;SDS011;15488;48.114;11.532;2023-12-20T06:45:31;0.80;;;0.80;;
15679;SDS011;15488;48.114;11.532;2023-12-20T06:47:59;0.90;;;0.70;;
15679;SDS011;15488;48.114;11.532;2023-12-20T06:50:27;1.10;;;0.60;;
15679;SDS011;15488;48.114;11.532;2023-12-20T06:52:54;1.00;;;0.70;;
15679;SDS011;15488;48.114;11.532;2023-12-20T06:55:22;0.90;;;0.77;;
15679;SDS011;15488;48.114;11.532;2023-12-20T06:57:51;1.00;;;0.60;;
15679;SDS011;15488;48.114;11.532;2023-12-20T07:00:18;0.97;;;0.63;;
15679;SDS011;15488;48.114;11.532;2023-12-20T07:02:47;1.10;;;0.70;;
15679;SDS011;15488;48.114;11.532;2023-12-20T07:05:16;0.60;;;0.50;;
15679;SDS011;15488;48.114;11.532;2023-12-20T07:07:45;0.70;;;0.50;;
15679;SDS011;15488;48.114;11.532;2023-12-20T07:10:12;0.80;;;0.43;;
15679;SDS011;15488;48.114;11.532;2023-12-20T07:12:40;0.97;;;0.50;;
15679;SDS011;15488;48.114;11.532;2023-12-20T07:15:09;1.07;;;0.27;;
15679;SDS011;15488;48.114;11.532;2023-12-20T07:17:37;0.30;;;0.30;;
15679;SDS011;15488;48.114;11.532;2023-12-20T07:20:05;1.03;;;0.47;;
15679;SDS011;15488;48.114;11.532;2023-12-20T07:22:36;0.40;;;0.40;;
15679;SDS011;15488;48.114;11.532;2023-12-20T07:25:04;0.70;;;0.40;;
15679;SDS011;15488;48.114;11.532;2023-12-20T07:27:32;0.70;;;0.30;;
15679;SDS011;15488;48.114;11.532;2023-12-20T07:30:00;0.33;;;0.30;;
15679;SDS011;15488;48.114;11.532;2023-12-20T07:32:29;0.40;;;0.40;;
15679;SDS011;15488;48.114;11.532;2023-12-20T07:34:57;0.70;;;0.30;;
15679;SDS011;15488;48.114;11.532;2023-12-20T07:37:24;0.30;;;0.30;;
15679;SDS011;15488;48.114;11.532;2023-12-20T07:39:52;0.60;;;0.53;;
15679;SDS011;15488;48.114;11.532;2023-12-20T07:42:19;0.50;;;0.33;;
15679;SDS011;15488;48.114;11.532;2023-12-20T07:44:48;0.70;;;0.43;;
15679;SDS011;15488;48.114;11.532;2023-12-20T07:47:15;0.73;;;0.37;;
15679;SDS011;15488;48.114;11.532;2023-12-20T07:49:48;0.80;;;0.33;;
15679;SDS011;15488;48.114;11.532;2023-12-20T07:52:16;0.50;;;0.30;;
15679;SDS011;15488;48.114;11.532;2023-12-20T07:54:44;0.33;;;0.30;;
15679;SDS011;15488;48.114;11.532;2023-12-20T07:57:12;0.50;;;0.40;;
15679;SDS011;15488;48.114;11.532;2023-12-20T07:59:39;0.50;;;0.43;;
15679;SDS011;15488;48.114;11.532;2023-12-20T08:02:07;0.40;;;0.30;;
15679;SDS011;15488;48.114;11.532;2023-12-20T08:04:34;0.60;;;0.40;;
15679;SDS011;15488;48.114;11.532;2023-12-20T08:07:04;0.40;;;0.33;;
15679;SDS011;15488;48.114;11.532;2023-12-20T08:09:31;0.60;;;0.40;;
15679;SDS011;15488;48.114;11.532;2023-12-20T08:11:59;0.37;;;0.30;;
15679;SDS011;15488;48.114;11.532;2023-12-20T08:14:27;0.53;;;0.50;;
15679;SDS011;15488;48.114;11.532;2023-12-20T08:16:54;0.70;;;0.30;;
15679;SDS011;15488;48.114;11.532;2023-12-20T08:19:22;0.50;;;0.30;;
15679;SDS011;15488;48.114;11.532;2023-12-20T08:21:49;0.37;;;0.30;;
15679;SDS011;15488;48.114;11.532;2023-12-20T08:24:18;0.40;;;0.40;;
15679;SDS011;15488;48.114;11.532;2023-12-20T08:26:46;0.40;;;0.30;;
15679;SDS011;15488;48.114;11.532;2023-12-20T08:29:13;0.50;;;0.30;;
15679;SDS011;15488;48.114;11.532;2023-12-20T08:31:41;0.70;;;0.50;;
15679;SDS011;15488;48.114;11.532;2023-12-20T08:34:08;0.40;;;0.30;;
15679;SDS011;15488;48.114;11.532;2023-12-20T08:36:38;2.27;;;0.37;;
15679;SDS011;15488;48.114;11.532;2023-12-20T08:39:06;0.60;;;0.40;;
15679;SDS011;15488;48.114;11.532;2023-12-20T08:41:35;0.80;;;0.37;;
15679;SDS011;15488;48.114;11.532;2023-12-20T08:44:03;1.07;;;0.50;;
15679;SDS011;15488;48.114;11.532;2023-12-20T08:46:30;1.30;;;0.30;;
15679;SDS011;15488;48.114;11.532;2023-12-20T08:48:58;0.50;;;0.40;;
15679;SDS011;15488;48.114;11.532;2023-12-20T08:51:25;0.43;;;0.40;;
15679;SDS011;15488;48.114;11.532;2023-12-20T08:53:53;0.40;;;0.30;;
15679;SDS011;15488;48.114;11.532;2023-12-20T08:56:21;0.30;;;0.27;;
15679;SDS011;15488;48.114;11.532;2023-12-20T08:58:49;1.63;;;0.37;;
15679;SDS011;15488;48.114;11.532;2023-12-20T09:01:17;0.30;;;0.20;;
15679;SDS011;15488;48.114;11.532;2023-12-20T09:03:45;0.40;;;0.30;;
15679;SDS011;15488;48.114;11.532;2023-12-20T09:06:12;0.30;;;0.13;;
15679;SDS011;15488;48.114;11.532;2023-12-20T09:08:40;0.20;;;0.20;;
15679;SDS011;15488;48.114;11.532;2023-12-20T09:11:08;0.30;;;0.20;;
15679;SDS011;15488;48.114;11.532;2023-12-20T09:13:35;0.40;;;0.20;;
15679;SDS011;15488;48.114;11.532;2023-12-20T09:16:05;0.40;;;0.27;;
15679;SDS011;15488;48.114;11.532;2023-12-20T09:18:32;0.40;;;0.40;;
15679;SDS011;15488;48.114;11.532;2023-12-20T09:21:00;0.40;;;0.30;;
15679;SDS011;15488;48.114;11.532;2023-12-20T09:23:27;0.20;;;0.20;;
15679;SDS011;15488;48.114;11.532;2023-12-20T09:25:55;0.63;;;0.40;;
15679;SDS011;15488;48.114;11.532;2023-12-20T09:28:23;0.30;;;0.30;;
15679;SDS011;15488;48.114;11.532;2023-12-20T09:30:50;0.80;;;0.40;;
15679;SDS011;15488;48.114;11.532;2023-12-20T09:33:19;0.70;;;0.40;;
15679;SDS011;15488;48.114;11.532;2023-12-20T09:35:47;0.27;;;0.20;;
15679;SDS011;15488;48.114;11.532;2023-12-20T09:38:14;0.23;;;0.23;;
15679;SDS011;15488;48.114;11.532;2023-12-20T09:40:42;0.50;;;0.30;;
15679;SDS011;15488;48.114;11.532;2023-12-20T09:43:10;0.50;;;0.40;;
15679;SDS011;15488;48.114;11.532;2023-12-20T09:45:40;0.60;;;0.40;;
15679;SDS011;15488;48.114;11.532;2023-12-20T09:48:11;0.43;;;0.43;;
15679;SDS011;15488;48.114;11.532;2023-12-20T09:50:42;0.30;;;0.30;;
15679;SDS011;15488;48.114;11.532;2023-12-20T09:53:10;0.30;;;0.23;;
15679;SDS011;15488;48.114;11.532;2023-12-20T09:55:41;0.50;;;0.30;;
15679;SDS011;15488;48.114;11.532;2023-12-20T09:58:08;0.40;;;0.30;;
15679;SDS011;15488;48.114;11.532;2023-12-20T10:00:36;0.27;;;0.20;;
15679;SDS011;15488;48.114;11.532;2023-12-20T10:03:04;1.03;;;0.40;;
15679;SDS011;15488;48.114;11.532;2023-12-20T10:05:34;0.87;;;0.47;;
15679;SDS011;15488;48.114;11.532;2023-12-20T10:08:04;1.37;;;0.50;;
15679;SDS011;15488;48.114;11.532;2023-12-20T10:10:31;1.17;;;0.50;;
15679;SDS011;15488;48.114;11.532;2023-12-20T10:13:03;1.10;;;0.70;;
15679;SDS011;15488;48.114;11.532;2023-12-20T10:15:32;1.20;;;0.43;;
15679;SDS011;15488;48.114;11.532;2023-12-20T10:18:00;0.77;;;0.40;;
15679;SDS011;15488;48.114;11.532;2023-12-20T10:20:27;1.00;;;0.40;;
15679;SDS011;15488;48.114;11.532;2023-12-20T10:22:55;1.17;;;0.50;;
15679;SDS011;15488;48.114;11.532;2023-12-20T10:25:24;0.77;;;0.50;;
15679;SDS011;15488;48.114;11.532;2023-12-20T10:30:36;1.13;;;0.50;;
15679;SDS011;15488;48.114;11.532;2023-12-20T10:33:04;1.37;;;0.50;;
15679;SDS011;15488;48.114;11.532;2023-12-20T10:35:33;0.60;;;0.30;;
15679;SDS011;15488;48.114;11.532;2023-12-20T10:38:03;1.10;;;0.33;;
15679;SDS011;15488;48.114;11.532;2023-12-20T10:40:32;0.60;;;0.50;;
15679;SDS011;15488;48.114;11.532;2023-12-20T10:43:03;0.80;;;0.60;;
15679;SDS011;15488;48.114;11.532;2023-12-20T10:45:31;2.23;;;0.50;;
15679;SDS011;15488;48.114;11.532;2023-12-20T10:48:00;1.20;;;0.47;;
15679;SDS011;15488;48.114;11.532;2023-12-20T10:50:30;0.83;;;0.47;;
15679;SDS011;15488;48.114;11.532;2023-12-20T10:52:58;0.60;;;0.50;;
15679;SDS011;15488;48.114;11.532;2023-12-20T10:55:26;0.40;;;0.40;;
15679;SDS011;15488;48.114;11.532;2023-12-20T10:57:58;0.70;;;0.50;;
15679;SDS011;15488;48.114;11.532;2023-12-20T11:00:28;0.83;;;0.50;;
15679;SDS011;15488;48.114;11.532;2023-12-20T11:02:57;1.03;;;0.60;;
15679;SDS011;15488;48.114;11.532;2023-12-20T11:05:31;0.30;;;0.30;;
15679;SDS011;15488;48.114;11.532;2023-12-20T11:08:06;2.10;;;0.70;;
15679;SDS011;15488;48.114;11.532;2023-12-20T11:10:39;0.50;;;0.47;;
15679;SDS011;15488;48.114;11.532;2023-12-20T11:13:17;1.63;;;0.80;;
15679;SDS011;15488;48.114;11.532;2023-12-20T11:15:48;6.40;;;2.60;;
15679;SDS011;15488;48.114;11.532;2023-12-20T11:18:16;1.53;;;0.97;;
15679;SDS011;15488;48.114;11.532;2023-12-20T11:20:44;1.73;;;0.97;;
15679;SDS011;15488;48.114;11.532;2023-12-20T11:23:11;0.60;;;0.50;;
15679;SDS011;15488;48.114;11.532;2023-12-20T11:25:47;2.03;;;0.80;;
15679;SDS011;15488;48.114;11.532;2023-12-20T11:28:16;1.17;;;0.83;;
15679;SDS011;15488;48.114;11.532;2023-12-20T11:30:50;1.00;;;0.60;;
15679;SDS011;15488;48.114;11.532;2023-12-20T11:33:21;1.33;;;0.90;;
15679;SDS011;15488;48.114;11.532;2023-12-20T11:35:49;0.97;;;0.80;;
15679;SDS011;15488;48.114;11.532;2023-12-20T11:38:17;0.70;;;0.70;;
15679;SDS011;15488;48.114;11.532;2023-12-20T11:40:48;0.60;;;0.60;;
15679;SDS011;15488;48.114;11.532;2023-12-20T11:43:30;1.50;;;0.80;;
15679;SDS011;15488;48.114;11.532;2023-12-20T11:46:02;2.03;;;0.90;;
15679;SDS011;15488;48.114;11.532;2023-12-20T11:48:31;1.10;;;0.83;;
15679;SDS011;15488;48.114;11.532;2023-12-20T11:51:00;0.80;;;0.57;;
15679;SDS011;15488;48.114;11.532;2023-12-20T11:53:29;1.27;;;0.80;;
15679;SDS011;15488;48.114;11.532;2023-12-20T11:55:58;1.00;;;0.83;;
15679;SDS011;15488;48.114;11.532;2023-12-20T11:58:28;1.13;;;0.90;;
15679;SDS011;15488;48.114;11.532;2023-12-20T12:00:57;1.60;;;1.10;;
15679;SDS011;15488;48.114;11.532;2023-12-20T12:03:24;1.00;;;0.90;;
15679;SDS011;15488;48.114;11.532;2023-12-20T12:05:52;1.30;;;0.80;;
15679;SDS011;15488;48.114;11.532;2023-12-20T12:08:20;1.13;;;0.90;;
15679;SDS011;15488;48.114;11.532;2023-12-20T12:10:47;1.10;;;0.93;;
15679;SDS011;15488;48.114;11.532;2023-12-20T12:13:15;0.70;;;0.70;;
15679;SDS011;15488;48.114;11.532;2023-12-20T12:15:44;1.00;;;0.60;;
15679;SDS011;15488;48.114;11.532;2023-12-20T12:18:15;0.93;;;0.70;;
15679;SDS011;15488;48.114;11.532;2023-12-20T12:20:43;0.77;;;0.60;;
15679;SDS011;15488;48.114;11.532;2023-12-20T12:23:11;0.80;;;0.50;;
15679;SDS011;15488;48.114;11.532;2023-12-20T12:25:38;0.40;;;0.40;;
15679;SDS011;15488;48.114;11.532;2023-12-20T12:28:06;0.93;;;0.70;;
15679;SDS011;15488;48.114;11.532;2023-12-20T12:30:34;1.60;;;0.80;;
15679;SDS011;15488;48.114;11.532;2023-12-20T12:33:03;1.20;;;0.80;;
15679;SDS011;15488;48.114;11.532;2023-12-20T12:35:31;1.43;;;0.70;;
15679;SDS011;15488;48.114;11.532;2023-12-20T12:38:00;1.50;;;0.60;;
15679;SDS011;15488;48.114;11.532;2023-12-20T12:40:28;0.70;;;0.50;;
15679;SDS011;15488;48.114;11.532;2023-12-20T12:42:56;0.83;;;0.53;;
15679;SDS011;15488;48.114;11.532;2023-12-20T12:45:23;1.40;;;0.80;;
15679;SDS011;15488;48.114;11.532;2023-12-20T12:47:52;3.00;;;0.73;;
15679;SDS011;15488;48.114;11.532;2023-12-20T12:50:21;0.63;;;0.63;;
15679;SDS011;15488;48.114;11.532;2023-12-20T12:52:49;0.83;;;0.70;;
15679;SDS011;15488;48.114;11.532;2023-12-20T12:55:16;0.73;;;0.70;;
15679;SDS011;15488;48.114;11.532;2023-12-20T12:57:44;0.90;;;0.60;;
15679;SDS011;15488;48.114;11.532;2023-12-20T13:00:12;2.00;;;0.90;;
15679;SDS011;15488;48.114;11.532;2023-12-20T13:02:40;1.40;;;0.83;;
15679;SDS011;15488;48.114;11.532;2023-12-20T13:05:08;0.90;;;0.70;;
15679;SDS011;15488;48.114;11.532;2023-12-20T13:07:37;2.07;;;0.80;;
15679;SDS011;15488;48.114;11.532;2023-12-20T13:10:05;1.43;;;0.90;;
15679;SDS011;15488;48.114;11.532;2023-12-20T13:12:33;1.57;;;1.10;;
15679;SDS011;15488;48.114;11.532;2023-12-20T13:15:01;1.83;;;1.07;;
15679;SDS011;15488;48.114;11.532;2023-12-20T13:17:29;1.47;;;0.90;;
15679;SDS011;15488;48.114;11.532;2023-12-20T13:19:59;2.43;;;1.07;;
15679;SDS011;15488;48.114;11.532;2023-12-20T13:22:28;2.27;;;1.17;;
15679;SDS011;15488;48.114;11.532;2023-12-20T13:24:57;1.67;;;1.10;;
15679;SDS011;15488;48.114;11.532;2023-12-20T13:27:24;1.70;;;1.00;;
15679;SDS011;15488;48.114;11.532;2023-12-20T13:29:53;1.30;;;1.07;;
15679;SDS011;15488;48.114;11.532;2023-12-20T13:32:20;1.00;;;0.90;;
15679;SDS011;15488;48.114;11.532;2023-12-20T13:34:48;0.73;;;0.60;;
15679;SDS011;15488;48.114;11.532;2023-12-20T13:37:16;1.80;;;1.30;;
15679;SDS011;15488;48.114;11.532;2023-12-20T13:39:43;2.80;;;1.10;;
15679;SDS011;15488;48.114;11.532;2023-12-20T13:42:12;1.50;;;0.90;;
15679;SDS011;15488;48.114;11.532;2023-12-20T13:44:40;1.80;;;0.80;;
15679;SDS011;15488;48.114;11.532;2023-12-20T13:47:07;0.87;;;0.70;;
15679;SDS011;15488;48.114;11.532;2023-12-20T13:49:35;1.40;;;1.00;;
15679;SDS011;15488;48.114;11.532;2023-12-20T13:52:03;1.20;;;1.03;;
15679;SDS011;15488;48.114;11.532;2023-12-20T13:54:30;3.40;;;1.30;;
15679;SDS011;15488;48.114;11.532;2023-12-20T13:56:58;1.73;;;1.20;;
15679;SDS011;15488;48.114;11.532;2023-12-20T13:59:27;2.77;;;1.27;;
15679;SDS011;15488;48.114;11.532;2023-12-20T14:01:54;2.00;;;1.13;;
15679;SDS011;15488;48.114;11.532;2023-12-20T14:04:23;1.17;;;0.90;;
15679;SDS011;15488;48.114;11.532;2023-12-20T14:06:50;1.47;;;1.00;;
15679;SDS011;15488;48.114;11.532;2023-12-20T14:09:18;1.33;;;0.90;;
15679;SDS011;15488;48.114;11.532;2023-12-20T14:11:46;1.77;;;0.80;;
15679;SDS011;15488;48.114;11.532;2023-12-20T14:14:13;1.10;;;0.83;;
15679;SDS011;15488;48.114;11.532;2023-12-20T14:16:42;1.13;;;0.70;;
15679;SDS011;15488;48.114;11.532;2023-12-20T14:19:10;1.53;;;1.03;;
15679;SDS011;15488;48.114;11.532;2023-12-20T14:21:38;1.70;;;1.10;;
15679;SDS011;15488;48.114;11.532;2023-12-20T14:24:06;2.70;;;1.00;;
15679;SDS011;15488;48.114;11.532;2023-12-20T14:26:33;2.00;;;1.30;;
15679;SDS011;15488;48.114;11.532;2023-12-20T14:29:02;1.57;;;1.03;;
15679;SDS011;15488;48.114;11.532;2023-12-20T14:31:34;1.93;;;1.10;;
15679;SDS011;15488;48.114;11.532;2023-12-20T14:34:04;2.90;;;1.70;;
15679;SDS011;15488;48.114;11.532;2023-12-20T14:36:32;2.00;;;1.20;;
15679;SDS011;15488;48.114;11.532;2023-12-20T14:39:00;2.30;;;1.47;;
15679;SDS011;15488;48.114;11.532;2023-12-20T14:41:28;3.73;;;1.37;;